Terminal Aerodrome Forecast
Issued by NWS Melbourne, FL

Home | Current Version | Previous Version | Text Only | Print | Product List | Glossary On
Versions: 1 2 3 4 5 6 7 8 9 10 11 12 13 14 15 16 17 18 19 20 21 22 23 24 25
000
FTUS42 KMLB 192100 AAA
TAFMCO
TAF AMD
KMCO 192109Z 1921/2018 03010KT P6SM VCTS SCT025CB BKN050 OVC100
      TEMPO 1921/1923 VRB15G25KT 2SM TSRA BKN025CB OVC050
     FM200000 04006KT P6SM VCSH BKN030 OVC060
     FM201400 VRB04KT P6SM VCSH BKN030 OVC060=

USA.gov is the U.S. government's official web portal to all federal, state and local government web resources and services.